Time;durP1;ratioP1;P1;durP2;ratioP2;P2;SDS_P1;SDS_P2;PMS_P1;PMS_P2;Temp;Humidity;BMP_temperature;BMP_pressure;BME280_temperature;BME280_humidity;BME280_pressure;Samples;Min_cycle;Max_cycle;Signal;HPM_P1;HPM_P2
2023/12/14 00:00:27;;;;;;;24.58;16.15;;;5.50;99.90;;;;;;5095430;28;20031;-62
2023/12/14 00:02:52;;;;;;;26.92;16.00;;;5.50;99.90;;;;;;5095619;28;20035;-61
2023/12/14 00:05:18;;;;;;;32.13;16.35;;;5.50;99.90;;;;;;5095324;28;20457;-63
2023/12/14 00:07:43;;;;;;;24.92;16.40;;;5.50;99.90;;;;;;5094194;28;20028;-63
2023/12/14 00:10:09;;;;;;;34.60;17.17;;;5.50;99.90;;;;;;5095568;28;20028;-63
2023/12/14 00:12:35;;;;;;;30.92;17.50;;;5.50;99.90;;;;;;5095523;28;20028;-62
2023/12/14 00:15:01;;;;;;;35.90;16.92;;;5.50;99.90;;;;;;5095492;28;20034;-63
2023/12/14 00:17:26;;;;;;;30.00;16.45;;;5.50;99.90;;;;;;5094100;28;20028;-63
2023/12/14 00:19:52;;;;;;;27.45;16.17;;;5.50;99.90;;;;;;5094820;28;20111;-63
2023/12/14 00:22:17;;;;;;;25.77;16.13;;;5.50;99.90;;;;;;5093961;28;20023;-63
2023/12/14 00:24:43;;;;;;;31.17;16.98;;;5.50;99.90;;;;;;5095064;28;20051;-63
2023/12/14 00:27:08;;;;;;;30.60;16.67;;;5.50;99.90;;;;;;5095275;28;20020;-63
2023/12/14 00:29:34;;;;;;;29.10;17.30;;;5.60;99.90;;;;;;5094168;28;20051;-63
2023/12/14 00:32:00;;;;;;;29.65;16.90;;;5.60;99.90;;;;;;5093800;28;20480;-63
2023/12/14 00:34:25;;;;;;;34.50;18.23;;;5.60;99.90;;;;;;5093727;28;20035;-63
2023/12/14 00:36:51;;;;;;;34.42;18.02;;;5.60;99.90;;;;;;5094749;28;20028;-63
2023/12/14 00:39:16;;;;;;;35.13;17.38;;;5.60;99.90;;;;;;5094623;28;20028;-63
2023/12/14 00:41:42;;;;;;;33.88;17.10;;;5.60;99.90;;;;;;5093720;28;20028;-63
2023/12/14 00:44:08;;;;;;;36.00;19.63;;;5.60;99.90;;;;;;5094865;28;20031;-63
2023/12/14 00:46:33;;;;;;;33.28;18.63;;;5.60;99.90;;;;;;5093275;28;20052;-63
2023/12/14 00:48:59;;;;;;;40.42;19.50;;;5.70;99.90;;;;;;5094556;28;20085;-63
2023/12/14 00:51:25;;;;;;;39.45;20.50;;;5.70;99.90;;;;;;5094728;28;20034;-63
2023/12/14 00:53:50;;;;;;;40.05;20.45;;;5.80;99.90;;;;;;5094878;28;20020;-63
2023/12/14 00:56:16;;;;;;;33.50;20.02;;;5.70;99.90;;;;;;5093320;28;20074;-63
2023/12/14 00:58:42;;;;;;;35.75;20.08;;;5.70;99.90;;;;;;5094565;28;20047;-63
2023/12/14 01:01:07;;;;;;;33.85;19.65;;;5.80;99.90;;;;;;5094563;28;20028;-63
2023/12/14 01:03:33;;;;;;;38.25;21.92;;;5.80;99.90;;;;;;5094538;28;20028;-63
2023/12/14 01:05:58;;;;;;;39.72;21.52;;;5.80;99.90;;;;;;5094539;28;20024;-63
2023/12/14 01:08:24;;;;;;;43.15;21.60;;;5.80;99.90;;;;;;5093670;28;20465;-63
2023/12/14 01:10:50;;;;;;;45.70;22.13;;;5.80;99.90;;;;;;5094520;28;20461;-63
2023/12/14 01:13:15;;;;;;;42.63;22.88;;;5.80;99.90;;;;;;5093368;28;20032;-63
2023/12/14 01:15:41;;;;;;;39.72;21.00;;;5.80;99.90;;;;;;5094578;28;20024;-63
2023/12/14 01:18:07;;;;;;;39.25;20.65;;;5.80;99.90;;;;;;5094855;28;20028;-64
2023/12/14 01:20:32;;;;;;;43.90;22.10;;;5.80;99.90;;;;;;5094523;28;20369;-63
2023/12/14 01:22:58;;;;;;;40.25;22.80;;;5.80;99.90;;;;;;5094279;28;20492;-64
2023/12/14 01:25:24;;;;;;;43.58;22.10;;;5.80;99.90;;;;;;5093812;28;20397;-63
2023/12/14 01:27:49;;;;;;;40.63;21.25;;;5.80;99.90;;;;;;5094411;28;20439;-63
2023/12/14 01:30:15;;;;;;;43.90;22.70;;;5.80;99.90;;;;;;5093884;28;20115;-63
2023/12/14 01:32:41;;;;;;;44.45;23.50;;;5.80;99.90;;;;;;5093427;28;20032;-63
2023/12/14 01:35:06;;;;;;;40.47;22.50;;;5.80;99.90;;;;;;5092749;28;20020;-63
2023/12/14 01:37:32;;;;;;;41.17;22.67;;;5.80;99.90;;;;;;5094443;28;20028;-63
2023/12/14 01:39:58;;;;;;;44.65;22.42;;;5.80;99.90;;;;;;5092679;28;20376;-64
2023/12/14 01:42:23;;;;;;;42.97;22.42;;;5.80;99.90;;;;;;5093362;28;20024;-63
2023/12/14 01:44:49;;;;;;;48.78;23.42;;;5.80;99.90;;;;;;5092701;28;20485;-63
2023/12/14 01:47:15;;;;;;;49.33;24.45;;;5.80;99.90;;;;;;5093073;28;20123;-63
2023/12/14 01:49:41;;;;;;;45.63;23.70;;;5.70;99.90;;;;;;5092635;28;20024;-64
2023/12/14 01:52:07;;;;;;;42.03;22.90;;;5.70;99.90;;;;;;5092308;28;20020;-63
2023/12/14 01:54:33;;;;;;;46.78;23.55;;;5.70;99.90;;;;;;5094084;28;20077;-63
2023/12/14 01:56:59;;;;;;;43.00;22.52;;;5.70;99.90;;;;;;5093522;28;20047;-63
2023/12/14 01:59:25;;;;;;;46.25;23.35;;;5.70;99.90;;;;;;5093830;28;20078;-64
2023/12/14 02:01:56;;;;;;;43.17;22.63;;;5.70;99.90;;;;;;5093794;28;20484;-63
2023/12/14 02:04:23;;;;;;;41.35;21.50;;;5.60;99.90;;;;;;5093813;28;20077;-63
2023/12/14 02:06:49;;;;;;;38.83;21.05;;;5.60;99.90;;;;;;5092028;28;20024;-63
2023/12/14 02:09:15;;;;;;;43.88;22.05;;;5.60;99.90;;;;;;5093966;28;20035;-63
2023/12/14 02:11:40;;;;;;;39.90;21.75;;;5.70;99.90;;;;;;5093978;28;20034;-63
2023/12/14 02:14:08;;;;;;;42.40;22.30;;;5.70;99.90;;;;;;5092308;28;20123;-63
2023/12/14 02:16:34;;;;;;;47.08;22.05;;;5.80;99.90;;;;;;5092565;28;20024;-63
2023/12/14 02:18:59;;;;;;;45.40;22.95;;;5.80;99.90;;;;;;5093647;28;20481;-64
2023/12/14 02:21:25;;;;;;;45.67;22.58;;;5.80;99.90;;;;;;5092353;28;20028;-63
2023/12/14 02:23:51;;;;;;;41.80;21.48;;;5.90;99.90;;;;;;5093333;28;20464;-63
2023/12/14 02:26:16;;;;;;;50.10;22.75;;;5.90;99.90;;;;;;5092311;28;20024;-63
2023/12/14 02:28:42;;;;;;;44.92;22.50;;;5.90;99.90;;;;;;5093450;28;20474;-63
2023/12/14 02:31:08;;;;;;;42.35;21.88;;;5.90;99.90;;;;;;5092427;28;20032;-64
2023/12/14 02:33:33;;;;;;;36.45;20.15;;;5.90;99.90;;;;;;5095304;28;20020;-64
2023/12/14 02:35:59;;;;;;;46.42;22.42;;;5.90;99.90;;;;;;5095312;28;20074;-64
2023/12/14 02:38:25;;;;;;;43.72;21.42;;;5.90;99.90;;;;;;5093547;28;20073;-64
2023/12/14 02:40:52;;;;;;;42.05;21.25;;;5.90;99.90;;;;;;5094445;28;20039;-67
2023/12/14 02:43:18;;;;;;;46.92;22.30;;;5.90;99.90;;;;;;5095273;28;20031;-63
2023/12/14 02:45:45;;;;;;;48.55;22.45;;;6.00;99.90;;;;;;5097789;28;20035;-64
2023/12/14 02:48:10;;;;;;;43.72;21.30;;;6.00;99.90;;;;;;5097430;28;20032;-63
2023/12/14 02:50:36;;;;;;;39.88;20.13;;;6.00;99.90;;;;;;5096906;28;20093;-63
2023/12/14 02:53:02;;;;;;;40.08;21.40;;;6.00;99.90;;;;;;5095768;28;20428;-64
2023/12/14 02:55:27;;;;;;;41.03;20.83;;;6.00;99.90;;;;;;5097509;28;20031;-63
2023/12/14 02:57:53;;;;;;;40.88;21.50;;;6.00;99.90;;;;;;5097151;28;20149;-63
2023/12/14 03:00:19;;;;;;;44.65;22.48;;;6.10;99.90;;;;;;5096910;28;20024;-63
2023/12/14 03:02:45;;;;;;;45.30;20.95;;;6.10;99.90;;;;;;5097174;28;20032;-63
2023/12/14 03:05:11;;;;;;;40.38;20.90;;;6.10;99.90;;;;;;5095611;28;20055;-63
2023/12/14 03:07:36;;;;;;;36.92;20.67;;;6.10;99.90;;;;;;5096722;28;20060;-64
2023/12/14 03:10:03;;;;;;;44.60;21.58;;;6.10;99.90;;;;;;5096804;28;20035;-63
2023/12/14 03:12:29;;;;;;;40.65;20.90;;;6.20;99.90;;;;;;5096910;28;20054;-63
2023/12/14 03:14:54;;;;;;;39.95;21.20;;;6.20;99.90;;;;;;5095322;28;20484;-63
2023/12/14 03:17:20;;;;;;;39.00;19.85;;;6.20;99.90;;;;;;5095255;28;20028;-63
2023/12/14 03:19:46;;;;;;;38.63;20.10;;;6.20;99.90;;;;;;5095237;28;20034;-63
2023/12/14 03:22:11;;;;;;;39.45;21.02;;;6.20;99.90;;;;;;5096522;28;20027;-64
2023/12/14 03:24:37;;;;;;;40.72;20.95;;;6.20;99.90;;;;;;5096010;28;20091;-63
2023/12/14 03:27:03;;;;;;;40.88;20.30;;;6.30;99.90;;;;;;5096524;28;20032;-63
2023/12/14 03:29:29;;;;;;;47.70;21.50;;;6.30;99.90;;;;;;5095321;28;20557;-63
2023/12/14 03:31:56;;;;;;;36.47;19.92;;;6.30;99.90;;;;;;5096174;28;20099;-63
2023/12/14 03:34:22;;;;;;;46.88;19.85;;;6.30;99.90;;;;;;5096582;28;20020;-63
2023/12/14 03:36:47;;;;;;;42.00;20.02;;;6.30;99.90;;;;;;5096199;28;20502;-63
2023/12/14 03:39:13;;;;;;;42.92;20.45;;;6.30;99.90;;;;;;5096143;28;20081;-63
2023/12/14 03:41:38;;;;;;;38.33;19.02;;;6.30;99.90;;;;;;5096116;28;20108;-63
2023/12/14 03:44:04;;;;;;;42.38;20.40;;;6.30;99.90;;;;;;5094791;28;20059;-63
2023/12/14 03:46:30;;;;;;;36.67;19.02;;;6.30;99.90;;;;;;5096133;28;20031;-64
2023/12/14 03:48:56;;;;;;;37.05;20.50;;;6.40;99.90;;;;;;5094876;28;20028;-64
2023/12/14 03:51:21;;;;;;;34.58;19.58;;;6.40;99.90;;;;;;5094825;28;20518;-64
2023/12/14 03:53:47;;;;;;;36.10;18.50;;;6.40;99.90;;;;;;5095280;28;20469;-64
2023/12/14 03:56:13;;;;;;;34.03;17.67;;;6.40;99.90;;;;;;5095979;28;20054;-63
2023/12/14 03:58:38;;;;;;;31.17;18.15;;;6.40;99.90;;;;;;5094554;28;20047;-64
2023/12/14 04:01:04;;;;;;;34.78;18.60;;;6.40;99.90;;;;;;5094784;28;20096;-63
2023/12/14 04:03:30;;;;;;;29.90;17.67;;;6.40;99.90;;;;;;5094715;28;20027;-63
2023/12/14 04:05:55;;;;;;;33.30;17.80;;;6.40;99.90;;;;;;5095620;28;20035;-64
2023/12/14 04:08:21;;;;;;;34.92;17.77;;;6.40;99.90;;;;;;5095514;28;20038;-64
2023/12/14 04:10:47;;;;;;;32.95;17.80;;;6.40;99.90;;;;;;5095467;28;20047;-63
2023/12/14 04:13:12;;;;;;;34.53;18.00;;;6.40;99.90;;;;;;5095492;28;20056;-63
2023/12/14 04:15:38;;;;;;;31.10;17.60;;;6.40;99.90;;;;;;5094155;28;20028;-63
2023/12/14 04:18:07;;;;;;;30.92;17.65;;;6.40;99.90;;;;;;5095971;28;20063;-64
2023/12/14 04:20:33;;;;;;;;;;;6.40;99.90;;;;;;5095796;28;20085;-63
2023/12/14 04:22:58;;;;;;;27.05;17.65;;;6.40;99.90;;;;;;5093737;28;19908;-63
2023/12/14 04:25:24;;;;;;;31.17;16.85;;;6.40;99.90;;;;;;5095239;28;20128;-64
2023/12/14 04:27:50;;;;;;;29.02;17.33;;;6.50;99.90;;;;;;5095269;28;20064;-64
2023/12/14 04:30:15;;;;;;;39.53;17.70;;;6.50;99.90;;;;;;5093880;28;20032;-63
2023/12/14 04:32:41;;;;;;;34.70;18.08;;;6.40;99.90;;;;;;5094934;28;20025;-63
2023/12/14 04:35:07;;;;;;;30.10;17.33;;;6.50;99.90;;;;;;5095010;28;20032;-64
2023/12/14 04:37:33;;;;;;;30.15;17.00;;;6.50;99.90;;;;;;5094334;28;20066;-64
2023/12/14 04:40:00;;;;;;;24.20;15.85;;;6.50;99.90;;;;;;5095290;28;20027;-64
2023/12/14 04:42:26;;;;;;;28.58;16.65;;;6.50;99.90;;;;;;5095043;28;20062;-63
2023/12/14 04:44:51;;;;;;;26.55;16.17;;;6.60;99.90;;;;;;5093595;28;20059;-63
2023/12/14 04:47:17;;;;;;;25.52;16.40;;;6.60;99.90;;;;;;5093499;28;20028;-63
2023/12/14 04:49:43;;;;;;;24.55;15.55;;;6.60;99.90;;;;;;5093480;28;20024;-63
2023/12/14 04:52:08;;;;;;;27.10;15.38;;;6.60;99.90;;;;;;5095416;28;20028;-63
2023/12/14 04:54:37;;;;;;;18.75;13.30;;;6.60;99.90;;;;;;5093409;28;20024;-63
2023/12/14 04:57:03;;;;;;;;;;;6.70;99.90;;;;;;5095162;28;20020;-63
2023/12/14 04:59:29;;;;;;;20.38;12.70;;;6.70;99.90;;;;;;5093412;28;19999;-63
2023/12/14 05:01:54;;;;;;;20.25;12.68;;;6.70;99.90;;;;;;5094324;28;20024;-63
2023/12/14 05:04:20;;;;;;;17.33;12.10;;;6.70;99.90;;;;;;5093513;28;20027;-63
2023/12/14 05:06:46;;;;;;;14.85;10.52;;;6.70;99.90;;;;;;5094514;28;20024;-63
2023/12/14 05:09:11;;;;;;;8.98;7.80;;;6.70;99.90;;;;;;5093185;28;20480;-63
2023/12/14 05:11:39;;;;;;;10.73;7.15;;;6.70;99.90;;;;;;5093177;28;20530;-63
2023/12/14 05:14:04;;;;;;;8.63;6.70;;;6.80;99.90;;;;;;5093141;28;20465;-63
2023/12/14 05:16:31;;;;;;;8.50;6.35;;;6.80;99.90;;;;;;5094377;28;20052;-63
2023/12/14 05:18:59;;;;;;;7.07;5.53;;;6.80;99.90;;;;;;5093017;28;20032;-63
2023/12/14 05:21:24;;;;;;;6.60;5.60;;;6.80;99.90;;;;;;5094301;28;20397;-63
2023/12/14 05:23:50;;;;;;;8.18;5.68;;;6.80;99.90;;;;;;5092476;28;20032;-63
2023/12/14 05:26:16;;;;;;;7.00;5.30;;;6.80;99.90;;;;;;5094467;28;20028;-63
2023/12/14 05:28:42;;;;;;;7.85;4.75;;;6.80;99.90;;;;;;5094236;28;20028;-63
2023/12/14 05:31:07;;;;;;;6.45;4.20;;;6.80;99.90;;;;;;5094185;28;20028;-63
2023/12/14 05:33:39;;;;;;;5.03;3.70;;;6.80;99.90;;;;;;5092849;28;20024;-63
2023/12/14 05:36:10;;;;;;;4.60;3.75;;;6.80;99.90;;;;;;5094342;28;20028;-64
2023/12/14 05:38:36;;;;;;;4.13;3.72;;;6.80;99.90;;;;;;5094361;28;20032;-63
2023/12/14 05:41:01;;;;;;;4.82;3.72;;;6.80;99.90;;;;;;5094272;28;20024;-64
2023/12/14 05:43:27;;;;;;;5.53;3.30;;;6.80;99.90;;;;;;5092911;28;20455;-64
2023/12/14 05:45:52;;;;;;;3.60;2.83;;;6.80;99.90;;;;;;5093929;28;20461;-64
2023/12/14 05:48:18;;;;;;;3.08;2.10;;;6.80;99.90;;;;;;5092594;28;20127;-63
2023/12/14 05:50:44;;;;;;;2.13;1.90;;;6.80;99.90;;;;;;5094099;28;20043;-63
2023/12/14 05:53:09;;;;;;;2.72;2.33;;;6.80;99.90;;;;;;5093114;28;20052;-65
2023/12/14 05:55:35;;;;;;;2.67;1.63;;;6.80;99.90;;;;;;5093178;28;20055;-63
2023/12/14 05:58:01;;;;;;;2.40;1.48;;;6.80;99.90;;;;;;5094206;28;20028;-64
2023/12/14 06:00:26;;;;;;;3.38;1.20;;;6.80;99.90;;;;;;5093845;28;20070;-64
2023/12/14 06:02:52;;;;;;;2.78;1.23;;;6.70;99.90;;;;;;5092633;28;20066;-63
2023/12/14 06:05:17;;;;;;;2.42;1.20;;;6.70;99.90;;;;;;5093829;28;20024;-62
2023/12/14 06:07:43;;;;;;;1.92;1.30;;;6.70;99.90;;;;;;5093657;28;20031;-62
2023/12/14 06:10:10;;;;;;;1.58;1.48;;;6.70;99.90;;;;;;5093677;28;20082;-62
2023/12/14 06:12:35;;;;;;;1.48;1.05;;;6.70;99.90;;;;;;5094086;28;20024;-62
2023/12/14 06:15:01;;;;;;;13.60;1.90;;;6.70;99.90;;;;;;5093858;28;20370;-62
2023/12/14 06:17:27;;;;;;;1.10;1.00;;;6.60;99.90;;;;;;5094599;28;20381;-63
2023/12/14 06:19:53;;;;;;;2.15;0.93;;;6.60;99.90;;;;;;5097711;28;20023;-62
2023/12/14 06:22:18;;;;;;;1.80;1.20;;;6.60;99.90;;;;;;5100500;28;20074;-74
2023/12/14 06:24:44;;;;;;;1.85;1.38;;;6.50;99.90;;;;;;5103959;28;20043;-73
2023/12/14 06:27:10;;;;;;;1.77;1.25;;;6.50;99.90;;;;;;5107972;28;20036;-73
2023/12/14 06:29:36;;;;;;;2.42;1.67;;;6.40;99.90;;;;;;5108251;28;20024;-74
2023/12/14 06:32:01;;;;;;;1.35;1.08;;;6.40;99.90;;;;;;5107647;28;20028;-77
2023/12/14 06:34:27;;;;;;;0.80;0.80;;;6.40;99.90;;;;;;5099793;28;20028;-75
2023/12/14 06:36:52;;;;;;;0.75;0.65;;;6.40;99.90;;;;;;5101056;28;20103;-70
2023/12/14 06:39:18;;;;;;;0.70;0.70;;;6.40;99.90;;;;;;5097482;28;20030;-67
2023/12/14 06:41:44;;;;;;;0.52;0.52;;;6.40;99.90;;;;;;5100957;28;20028;-67
2023/12/14 06:44:10;;;;;;;1.83;0.80;;;6.50;99.90;;;;;;5101714;28;20441;-67
2023/12/14 06:46:36;;;;;;;2.75;0.90;;;6.40;99.90;;;;;;5101146;28;20020;-67
2023/12/14 06:49:02;;;;;;;1.13;0.43;;;6.40;99.90;;;;;;5098594;28;20032;-66
2023/12/14 06:51:27;;;;;;;0.40;0.40;;;6.40;99.90;;;;;;5095908;28;20105;-65
2023/12/14 06:53:53;;;;;;;1.38;0.50;;;6.40;99.90;;;;;;5096841;28;20031;-66
2023/12/14 06:56:18;;;;;;;1.50;0.50;;;6.40;99.90;;;;;;5097058;28;20035;-65
2023/12/14 06:58:44;;;;;;;1.67;0.77;;;6.30;99.90;;;;;;5097007;28;20213;-65
2023/12/14 07:01:14;;;;;;;0.68;0.65;;;6.30;99.90;;;;;;5097223;28;20157;-65
2023/12/14 07:03:46;;;;;;;2.40;0.60;;;6.30;99.90;;;;;;5096870;28;20028;-65
2023/12/14 07:06:13;;;;;;;0.80;0.52;;;6.30;99.90;;;;;;5097146;28;20107;-65
2023/12/14 07:08:40;;;;;;;1.60;1.20;;;6.30;99.90;;;;;;5096703;28;20028;-65
2023/12/14 07:11:06;;;;;;;2.13;1.00;;;6.30;99.90;;;;;;5096600;28;20496;-65
2023/12/14 07:13:32;;;;;;;1.85;0.90;;;6.20;99.90;;;;;;5096511;28;20024;-65
2023/12/14 07:15:58;;;;;;;3.70;1.67;;;6.20;99.90;;;;;;5095733;28;20027;-65
2023/12/14 07:18:24;;;;;;;2.40;1.48;;;6.20;99.90;;;;;;5096349;28;20028;-64
2023/12/14 07:20:50;;;;;;;3.78;1.15;;;6.20;99.90;;;;;;5096257;28;20024;-64
2023/12/14 07:23:15;;;;;;;3.10;0.80;;;6.20;99.90;;;;;;5096623;28;20107;-65
2023/12/14 07:25:41;;;;;;;1.77;1.00;;;6.20;99.90;;;;;;5097303;28;20044;-64
2023/12/14 07:28:06;;;;;;;3.88;0.80;;;6.20;99.90;;;;;;5096230;28;20035;-64
2023/12/14 07:30:32;;;;;;;0.80;0.70;;;6.20;99.90;;;;;;5094277;28;20386;-64
2023/12/14 07:32:58;;;;;;;1.42;0.88;;;6.20;99.90;;;;;;5096698;28;20365;-64
2023/12/14 07:35:23;;;;;;;2.17;0.60;;;6.30;99.90;;;;;;5095083;28;20028;-64
2023/12/14 07:37:49;;;;;;;1.50;1.00;;;6.30;99.90;;;;;;5096466;28;20028;-65
2023/12/14 07:40:15;;;;;;;1.98;1.42;;;6.40;99.90;;;;;;5095892;28;20052;-64
2023/12/14 07:42:41;;;;;;;3.35;1.58;;;6.30;99.90;;;;;;5096799;28;20024;-68
2023/12/14 07:45:09;;;;;;;5.25;1.70;;;6.30;99.90;;;;;;5096857;28;20047;-68
2023/12/14 07:47:35;;;;;;;5.53;2.13;;;6.30;99.90;;;;;;5096652;28;20028;-68
2023/12/14 07:50:01;;;;;;;1.90;0.50;;;6.40;99.90;;;;;;5094979;28;20028;-68
2023/12/14 07:52:26;;;;;;;2.90;0.40;;;6.30;99.90;;;;;;5095071;28;20028;-68
2023/12/14 07:54:52;;;;;;;0.47;0.30;;;6.30;99.90;;;;;;5094598;28;20050;-67
2023/12/14 07:57:17;;;;;;;1.15;0.40;;;6.40;99.90;;;;;;5095771;28;20093;-67
2023/12/14 07:59:43;;;;;;;0.60;0.50;;;6.40;99.90;;;;;;5095842;28;20027;-67
2023/12/14 08:02:09;;;;;;;2.05;0.80;;;6.40;99.90;;;;;;5096062;28;20020;-67
2023/12/14 08:04:34;;;;;;;1.33;0.90;;;6.50;99.90;;;;;;5096109;28;20039;-67
2023/12/14 08:07:00;;;;;;;1.27;1.13;;;6.50;99.90;;;;;;5094321;28;20460;-67
2023/12/14 08:09:26;;;;;;;0.88;0.55;;;6.50;99.90;;;;;;5094298;28;20230;-67
2023/12/14 08:11:52;;;;;;;0.80;0.60;;;6.50;99.90;;;;;;5095622;28;20107;-67
2023/12/14 08:14:18;;;;;;;2.17;0.57;;;6.50;99.90;;;;;;5094473;28;20358;-67
2023/12/14 08:16:43;;;;;;;0.80;0.70;;;6.60;99.90;;;;;;5095882;28;20035;-67
2023/12/14 08:19:09;;;;;;;0.90;0.90;;;6.60;99.90;;;;;;5095384;28;20024;-67
2023/12/14 08:21:34;;;;;;;1.10;0.80;;;6.60;99.90;;;;;;5094580;28;20406;-67
2023/12/14 08:24:00;;;;;;;1.42;0.63;;;6.60;99.90;;;;;;5093986;28;20020;-68
2023/12/14 08:26:26;;;;;;;0.70;0.60;;;6.70;99.90;;;;;;5095728;28;20028;-68
2023/12/14 08:28:51;;;;;;;1.08;0.68;;;6.70;99.90;;;;;;5095259;28;20024;-67
2023/12/14 08:31:17;;;;;;;0.80;0.80;;;6.70;99.90;;;;;;5094580;28;20373;-67
2023/12/14 08:33:43;;;;;;;0.75;0.60;;;6.70;99.90;;;;;;5093869;28;20026;-67
2023/12/14 08:36:08;;;;;;;0.82;0.40;;;6.80;99.90;;;;;;5095323;28;20111;-67
2023/12/14 08:38:34;;;;;;;2.65;1.02;;;6.80;99.90;;;;;;5095313;28;20028;-67
2023/12/14 08:41:00;;;;;;;1.00;0.47;;;6.80;99.90;;;;;;5094680;28;20039;-67
2023/12/14 08:43:26;;;;;;;0.40;0.40;;;6.90;99.90;;;;;;5093908;28;20385;-67
2023/12/14 08:45:52;;;;;;;0.50;0.50;;;6.90;99.90;;;;;;5093842;28;20119;-67
2023/12/14 08:48:18;;;;;;;0.47;0.43;;;6.90;99.90;;;;;;5093610;28;20185;-68
2023/12/14 08:50:44;;;;;;;0.40;0.40;;;6.90;99.90;;;;;;5095250;28;20028;-67
2023/12/14 08:53:11;;;;;;;0.40;0.32;;;7.00;99.90;;;;;;5093705;28;20024;-70
2023/12/14 08:55:36;;;;;;;0.65;0.50;;;7.10;99.90;;;;;;5094571;28;20031;-68
2023/12/14 08:58:02;;;;;;;1.77;0.47;;;7.10;99.90;;;;;;5093595;28;20032;-68
2023/12/14 09:00:28;;;;;;;0.98;0.65;;;7.10;99.90;;;;;;5093580;28;20424;-64
2023/12/14 09:02:53;;;;;;;0.70;0.60;;;7.20;99.90;;;;;;5093496;28;20066;-65
2023/12/14 09:05:20;;;;;;;0.70;0.57;;;7.20;99.90;;;;;;5094964;28;20032;-68
2023/12/14 09:07:46;;;;;;;0.73;0.52;;;7.20;99.90;;;;;;5095140;28;20028;-66
2023/12/14 09:10:13;;;;;;;0.63;0.47;;;7.20;99.90;;;;;;5093671;28;20127;-68
2023/12/14 09:12:38;;;;;;;0.40;0.40;;;7.20;99.90;;;;;;5093925;28;20064;-68
2023/12/14 09:15:05;;;;;;;1.10;0.40;;;7.20;99.90;;;;;;5093210;28;20444;-67
2023/12/14 09:17:33;;;;;;;0.43;0.40;;;7.20;99.90;;;;;;5094904;28;20370;-68
2023/12/14 09:20:00;;;;;;;0.75;0.50;;;7.30;99.90;;;;;;5094604;28;20085;-67
2023/12/14 09:22:26;;;;;;;0.50;0.50;;;7.30;99.90;;;;;;5093747;28;20038;-68
2023/12/14 09:24:52;;;;;;;0.68;0.45;;;7.30;99.90;;;;;;5093211;28;20139;-70
2023/12/14 09:27:17;;;;;;;1.67;0.57;;;7.30;99.90;;;;;;5095373;28;20032;-65
2023/12/14 09:29:44;;;;;;;1.52;1.42;;;7.30;99.90;;;;;;5094366;28;20055;-66
2023/12/14 09:32:10;;;;;;;0.68;0.65;;;7.40;99.90;;;;;;5095109;28;20024;-66
2023/12/14 09:34:36;;;;;;;0.70;0.57;;;7.40;99.90;;;;;;5094605;28;20024;-66
2023/12/14 09:37:01;;;;;;;1.00;0.80;;;7.40;99.90;;;;;;5094342;28;20032;-66
2023/12/14 09:39:27;;;;;;;0.60;0.57;;;7.40;99.90;;;;;;5094041;28;20462;-65
2023/12/14 09:42:04;;;;;;;0.65;0.63;;;7.40;99.90;;;;;;5093712;28;20082;-66
2023/12/14 09:44:31;;;;;;;1.15;0.65;;;7.40;99.90;;;;;;5092836;28;20028;-65
2023/12/14 09:46:59;;;;;;;0.70;0.70;;;7.40;99.90;;;;;;5093857;28;20111;-65
2023/12/14 09:49:29;;;;;;;1.13;0.73;;;7.40;99.90;;;;;;5092688;28;20035;-65
2023/12/14 09:51:56;;;;;;;0.82;0.60;;;7.50;99.90;;;;;;5093197;28;20037;-66
2023/12/14 09:54:22;;;;;;;1.48;0.63;;;7.50;99.90;;;;;;5093873;28;20043;-65
2023/12/14 09:56:48;;;;;;;1.75;0.40;;;7.50;99.90;;;;;;5092996;28;20028;-65
2023/12/14 09:59:14;;;;;;;0.47;0.47;;;7.60;99.90;;;;;;5093865;28;20024;-65
2023/12/14 10:01:40;;;;;;;0.50;0.47;;;7.70;99.90;;;;;;5092535;28;20027;-66
2023/12/14 10:04:13;;;;;;;0.65;0.65;;;7.70;99.90;;;;;;5094103;28;20020;-66
2023/12/14 10:06:42;;;;;;;0.47;0.45;;;7.80;99.90;;;;;;5094004;28;20024;-65
2023/12/14 10:09:15;;;;;;;0.43;0.43;;;7.90;99.90;;;;;;5092421;28;20525;-65
2023/12/14 10:11:41;;;;;;;0.65;0.60;;;8.00;99.90;;;;;;5094174;28;20078;-65
2023/12/14 10:14:27;;;;;;;0.45;0.45;;;8.10;99.90;;;;;;5092659;28;20036;-66
2023/12/14 10:16:53;;;;;;;0.52;0.52;;;8.20;99.90;;;;;;5093748;28;20020;-65
2023/12/14 10:19:19;;;;;;;0.50;0.35;;;8.40;99.90;;;;;;5093688;28;20526;-66
2023/12/14 10:21:49;;;;;;;0.77;0.43;;;8.60;99.90;;;;;;5092520;28;20020;-66
2023/12/14 10:24:16;;;;;;;1.55;0.20;;;8.80;99.90;;;;;;5093395;28;20436;-68
2023/12/14 10:26:44;;;;;;;0.88;0.30;;;8.90;99.90;;;;;;5094349;28;20085;-68
2023/12/14 10:29:09;;;;;;;0.35;0.35;;;9.10;99.90;;;;;;5093571;28;20067;-67
2023/12/14 10:31:37;;;;;;;0.38;0.30;;;9.20;99.90;;;;;;5093722;28;20465;-67
2023/12/14 10:34:06;;;;;;;0.50;0.50;;;9.50;99.90;;;;;;5093104;28;20422;-67
2023/12/14 10:36:32;;;;;;;0.30;0.30;;;9.80;99.90;;;;;;5093622;28;20502;-64
2023/12/14 10:39:00;;;;;;;0.73;0.40;;;9.90;99.90;;;;;;5093429;28;20032;-64
2023/12/14 10:41:28;;;;;;;0.60;0.30;;;10.00;99.90;;;;;;5092768;28;20445;-64
2023/12/14 10:43:57;;;;;;;0.68;0.43;;;9.80;99.90;;;;;;5092316;28;20024;-64
2023/12/14 10:46:23;;;;;;;1.45;0.40;;;9.60;99.90;;;;;;5093545;28;20028;-63
2023/12/14 10:48:50;;;;;;;0.60;0.60;;;9.30;99.90;;;;;;5094188;28;20047;-64
2023/12/14 10:51:23;;;;;;;0.70;0.40;;;9.00;99.90;;;;;;5095451;28;20055;-67
2023/12/14 10:53:51;;;;;;;0.45;0.40;;;8.90;99.90;;;;;;5093885;28;20024;-65
2023/12/14 10:56:18;;;;;;;0.87;0.60;;;8.70;99.90;;;;;;5094650;28;20031;-64
2023/12/14 10:58:57;;;;;;;0.75;0.75;;;8.60;99.90;;;;;;5094319;28;20111;-65
2023/12/14 11:01:24;;;;;;;3.67;0.88;;;8.50;99.90;;;;;;5093546;28;20020;-63
2023/12/14 11:03:56;;;;;;;7.22;1.33;;;8.40;99.90;;;;;;5093788;28;20111;-64
2023/12/14 11:06:24;;;;;;;1.25;1.00;;;8.50;99.90;;;;;;5097135;28;20028;-64
2023/12/14 11:08:55;;;;;;;1.58;1.45;;;8.40;99.90;;;;;;5096849;28;20031;-64
2023/12/14 11:11:21;;;;;;;1.40;1.25;;;8.30;99.90;;;;;;5096526;28;20047;-63
2023/12/14 11:13:53;;;;;;;1.80;1.70;;;8.30;99.90;;;;;;5096551;28;20419;-64
2023/12/14 11:16:23;;;;;;;2.67;1.30;;;8.20;99.90;;;;;;5096701;28;20099;-64
2023/12/14 11:19:09;;;;;;;2.00;1.80;;;8.20;99.90;;;;;;5096397;28;20024;-64
2023/12/14 11:21:34;;;;;;;2.47;2.15;;;8.20;99.90;;;;;;5096405;28;20111;-64
2023/12/14 11:24:01;;;;;;;2.03;1.80;;;8.10;99.90;;;;;;5096433;28;20107;-64
2023/12/14 11:26:28;;;;;;;6.53;2.17;;;8.10;99.90;;;;;;5095232;28;20049;-64
2023/12/14 11:28:54;;;;;;;2.08;1.88;;;8.10;99.90;;;;;;5096241;28;20417;-64
2023/12/14 11:31:22;;;;;;;4.35;2.28;;;8.10;99.90;;;;;;5096400;28;20031;-64
2023/12/14 11:33:48;;;;;;;2.50;2.30;;;8.10;99.90;;;;;;5096694;28;20457;-63
2023/12/14 11:36:14;;;;;;;3.05;2.28;;;8.10;99.90;;;;;;5096214;28;20024;-63
2023/12/14 11:38:40;;;;;;;2.60;1.92;;;8.10;99.90;;;;;;5096618;28;20046;-63
2023/12/14 11:41:05;;;;;;;4.72;2.28;;;8.10;99.90;;;;;;5096627;28;20024;-63
2023/12/14 11:43:42;;;;;;;4.40;2.40;;;8.10;99.90;;;;;;5095881;28;20377;-62
2023/12/14 11:46:08;;;;;;;3.15;2.53;;;8.10;99.90;;;;;;5094946;28;20035;-63
2023/12/14 11:48:33;;;;;;;2.25;2.05;;;8.20;99.90;;;;;;5094733;28;20050;-63
2023/12/14 11:51:00;;;;;;;2.28;2.08;;;8.20;99.90;;;;;;5096098;28;20028;-65
2023/12/14 11:53:26;;;;;;;2.50;2.30;;;8.20;99.90;;;;;;5096038;28;20035;-64
2023/12/14 11:55:52;;;;;;;8.38;2.03;;;8.40;99.90;;;;;;5096222;28;20028;-64
2023/12/14 11:58:18;;;;;;;3.63;2.20;;;8.40;99.90;;;;;;5094612;28;20118;-64
2023/12/14 12:00:46;;;;;;;2.38;2.00;;;8.40;99.90;;;;;;5095970;28;20062;-64
2023/12/14 12:03:21;;;;;;;2.20;2.00;;;8.50;99.90;;;;;;5094471;28;20028;-64
2023/12/14 12:05:51;;;;;;;3.70;1.75;;;8.40;99.90;;;;;;5095788;28;20021;-64
2023/12/14 12:08:19;;;;;;;1.88;1.50;;;8.50;99.90;;;;;;5094608;28;20093;-64
2023/12/14 12:10:46;;;;;;;1.73;1.63;;;8.70;99.90;;;;;;5095746;28;20112;-65
2023/12/14 12:13:17;;;;;;;3.30;1.50;;;9.10;99.90;;;;;;5095607;28;20056;-65
2023/12/14 12:15:42;;;;;;;2.08;1.55;;;9.20;99.90;;;;;;5094863;28;20044;-64
2023/12/14 12:18:13;;;;;;;1.40;1.30;;;9.10;99.90;;;;;;5095522;28;20060;-64
2023/12/14 12:20:39;;;;;;;1.92;1.50;;;8.90;99.90;;;;;;5095422;28;20024;-65
2023/12/14 12:23:05;;;;;;;1.50;1.40;;;8.80;99.90;;;;;;5094183;28;20024;-65
2023/12/14 12:25:31;;;;;;;1.83;1.73;;;8.70;99.90;;;;;;5094911;28;20121;-64
2023/12/14 12:28:01;;;;;;;1.67;1.45;;;8.50;99.90;;;;;;5095466;28;20032;-70
2023/12/14 12:30:27;;;;;;;2.58;1.38;;;8.40;99.90;;;;;;5096499;28;20078;-69
2023/12/14 12:32:55;;;;;;;3.65;1.58;;;8.20;99.90;;;;;;5095337;28;20396;-65
2023/12/14 12:35:25;;;;;;;2.95;1.95;;;8.20;99.90;;;;;;5094977;28;20059;-65
2023/12/14 12:37:53;;;;;;;1.35;1.25;;;8.10;99.90;;;;;;5095241;28;20020;-64
2023/12/14 12:40:25;;;;;;;3.47;1.20;;;8.10;99.90;;;;;;5095100;28;20445;-64
2023/12/14 12:42:51;;;;;;;1.75;1.35;;;8.10;99.90;;;;;;5093803;28;20481;-64
2023/12/14 12:45:17;;;;;;;1.10;1.00;;;8.10;99.90;;;;;;5095031;28;20036;-65